Forsyth, Missouri
Current Conditions -  °F | °C
As of 11:47 AM on Friday 28 Nov 2014 (Local Time) from KBBG Reporting Station
Few Clouds Few Clouds  
Wind Chill: 57°   Ceiling: Unl
Heat Index: 57°   Visibility: 10mi
Dew Point: 32°   Wind: 13mph
Humidity: 38%   Direction: 210°SSW
Pressure: 30.08"   Gusts: 20mph
Location:  36.69°N, 93.12°W
Report Text: KBBG 281747Z 21011G17KT 10SM FEW250 14/00 A3008
Loading
Personal Weather Stations






























Interactive Weather Map New forecast layout! Learn more

10-Day Weather Forecast

Advertisements
Track Severe Weather on mobile